sensor_id;sensor_type;location;lat;lon;timestamp;pressure;altitude;pressure_sealevel;temperature;humidity
77110;BME280;66062;52.464;16.922;2023-03-04T00:01:06;100591.06;;;1.94;92.54
77110;BME280;66062;52.464;16.922;2023-03-04T00:03:31;100582.91;;;1.99;92.23
77110;BME280;66062;52.464;16.922;2023-03-04T00:05:57;100578.94;;;1.92;92.32
77110;BME280;66062;52.464;16.922;2023-03-04T00:08:22;100580.28;;;1.99;92.09
77110;BME280;66062;52.464;16.922;2023-03-04T00:10:47;100585.47;;;2.00;91.85
77110;BME280;66062;52.464;16.922;2023-03-04T00:13:13;100575.00;;;1.99;92.41
77110;BME280;66062;52.464;16.922;2023-03-04T00:15:38;100577.63;;;1.99;92.64
77110;BME280;66062;52.464;16.922;2023-03-04T00:18:04;100575.53;;;1.90;92.91
77110;BME280;66062;52.464;16.922;2023-03-04T00:20:29;100581.56;;;1.92;93.18
77110;BME280;66062;52.464;16.922;2023-03-04T00:22:54;100574.41;;;1.94;93.15
77110;BME280;66062;52.464;16.922;2023-03-04T00:25:20;100569.16;;;1.94;93.56
77110;BME280;66062;52.464;16.922;2023-03-04T00:27:45;100578.75;;;1.95;92.20
77110;BME280;66062;52.464;16.922;2023-03-04T00:30:11;100563.75;;;1.97;93.12
77110;BME280;66062;52.464;16.922;2023-03-04T00:32:37;100566.44;;;1.95;93.02
77110;BME280;66062;52.464;16.922;2023-03-04T00:35:03;100561.00;;;1.98;93.34
77110;BME280;66062;52.464;16.922;2023-03-04T00:37:31;100558.63;;;1.94;92.86
77110;BME280;66062;52.464;16.922;2023-03-04T00:39:57;100563.75;;;1.97;92.58
77110;BME280;66062;52.464;16.922;2023-03-04T00:42:22;100549.88;;;1.93;93.03
77110;BME280;66062;52.464;16.922;2023-03-04T00:44:48;100550.00;;;1.92;92.63
77110;BME280;66062;52.464;16.922;2023-03-04T00:47:19;100542.34;;;2.03;92.02
77110;BME280;66062;52.464;16.922;2023-03-04T00:49:44;100535.19;;;2.05;91.46
77110;BME280;66062;52.464;16.922;2023-03-04T00:52:10;100532.56;;;2.05;91.25
77110;BME280;66062;52.464;16.922;2023-03-04T00:54:36;100521.03;;;2.07;91.28
77110;BME280;66062;52.464;16.922;2023-03-04T00:57:01;100523.47;;;2.10;91.03
77110;BME280;66062;52.464;16.922;2023-03-04T00:59:26;100528.81;;;2.09;90.79
77110;BME280;66062;52.464;16.922;2023-03-04T01:01:52;100521.69;;;2.11;90.60
77110;BME280;66062;52.464;16.922;2023-03-04T01:04:17;100517.53;;;2.07;90.37
77110;BME280;66062;52.464;16.922;2023-03-04T01:06:42;100511.34;;;2.08;90.10
77110;BME280;66062;52.464;16.922;2023-03-04T01:09:08;100493.66;;;2.10;90.23
77110;BME280;66062;52.464;16.922;2023-03-04T01:11:33;100493.66;;;2.10;89.22
77110;BME280;66062;52.464;16.922;2023-03-04T01:13:59;100486.63;;;2.10;89.13
77110;BME280;66062;52.464;16.922;2023-03-04T01:16:24;100481.84;;;2.17;88.51
77110;BME280;66062;52.464;16.922;2023-03-04T01:18:49;100473.03;;;2.18;88.13
77110;BME280;66062;52.464;16.922;2023-03-04T01:21:15;100465.13;;;2.18;87.62
77110;BME280;66062;52.464;16.922;2023-03-04T01:23:40;100462.00;;;2.11;87.76
77110;BME280;66062;52.464;16.922;2023-03-04T01:26:05;100461.16;;;2.11;87.65
77110;BME280;66062;52.464;16.922;2023-03-04T01:28:31;100451.38;;;2.13;88.13
77110;BME280;66062;52.464;16.922;2023-03-04T01:31:03;100437.38;;;2.12;87.96
77110;BME280;66062;52.464;16.922;2023-03-04T01:33:29;100440.94;;;2.11;87.99
77110;BME280;66062;52.464;16.922;2023-03-04T01:35:54;100428.78;;;2.09;88.01
77110;BME280;66062;52.464;16.922;2023-03-04T01:38:20;100415.81;;;2.06;87.99
77110;BME280;66062;52.464;16.922;2023-03-04T01:40:45;100414.13;;;2.05;88.45
77110;BME280;66062;52.464;16.922;2023-03-04T01:43:23;100407.56;;;2.12;87.72
77110;BME280;66062;52.464;16.922;2023-03-04T01:45:50;100406.72;;;2.11;87.41
77110;BME280;66062;52.464;16.922;2023-03-04T01:48:22;100406.63;;;2.13;87.54
77110;BME280;66062;52.464;16.922;2023-03-04T01:50:49;100411.91;;;2.13;87.75
77110;BME280;66062;52.464;16.922;2023-03-04T01:53:23;100403.44;;;2.08;87.37
77110;BME280;66062;52.464;16.922;2023-03-04T01:55:51;100395.41;;;2.09;87.66
77110;BME280;66062;52.464;16.922;2023-03-04T01:58:17;100389.41;;;2.07;87.57
77110;BME280;66062;52.464;16.922;2023-03-04T02:00:43;100390.28;;;2.08;87.73
77110;BME280;66062;52.464;16.922;2023-03-04T02:03:11;100384.44;;;2.03;87.82
77110;BME280;66062;52.464;16.922;2023-03-04T02:05:42;100393.91;;;2.05;88.04
77110;BME280;66062;52.464;16.922;2023-03-04T02:08:08;100377.47;;;2.02;87.78
77110;BME280;66062;52.464;16.922;2023-03-04T02:10:35;100377.28;;;2.05;87.66
77110;BME280;66062;52.464;16.922;2023-03-04T02:13:02;100377.28;;;2.05;87.64
77110;BME280;66062;52.464;16.922;2023-03-04T02:15:28;100363.94;;;2.08;88.52
77110;BME280;66062;52.464;16.922;2023-03-04T02:17:54;100372.94;;;2.04;88.09
77110;BME280;66062;52.464;16.922;2023-03-04T02:25:39;100361.13;;;2.11;87.53
77110;BME280;66062;52.464;16.922;2023-03-04T02:28:06;100356.06;;;2.08;87.76
77110;BME280;66062;52.464;16.922;2023-03-04T02:30:32;100366.75;;;2.05;87.54
77110;BME280;66062;52.464;16.922;2023-03-04T02:32:57;100357.72;;;2.09;87.98
77110;BME280;66062;52.464;16.922;2023-03-04T02:35:23;100351.59;;;2.08;87.45
77110;BME280;66062;52.464;16.922;2023-03-04T02:37:49;100351.72;;;2.07;87.24
77110;BME280;66062;52.464;16.922;2023-03-04T02:40:20;100351.81;;;2.05;87.29
77110;BME280;66062;52.464;16.922;2023-03-04T02:42:48;100346.53;;;2.05;87.50
77110;BME280;66062;52.464;16.922;2023-03-04T02:45:31;100357.72;;;2.09;86.85
77110;BME280;66062;52.464;16.922;2023-03-04T02:47:58;100351.59;;;2.08;86.52
77110;BME280;66062;52.464;16.922;2023-03-04T02:50:23;100349.25;;;2.04;86.94
77110;BME280;66062;52.464;16.922;2023-03-04T02:52:50;100348.81;;;2.11;86.35
77110;BME280;66062;52.464;16.922;2023-03-04T02:55:16;100353.22;;;2.11;86.46
77110;BME280;66062;52.464;16.922;2023-03-04T02:57:41;100342.91;;;2.08;86.91
77110;BME280;66062;52.464;16.922;2023-03-04T03:00:07;100353.78;;;2.16;86.06
77110;BME280;66062;52.464;16.922;2023-03-04T03:02:32;100352.09;;;2.15;86.38
77110;BME280;66062;52.464;16.922;2023-03-04T03:04:58;100349.66;;;2.12;85.87
77110;BME280;66062;52.464;16.922;2023-03-04T03:07:23;100363.47;;;2.15;86.07
77110;BME280;66062;52.464;16.922;2023-03-04T03:09:49;100352.38;;;2.10;85.56
77110;BME280;66062;52.464;16.922;2023-03-04T03:12:14;100359.91;;;2.17;85.74
77110;BME280;66062;52.464;16.922;2023-03-04T03:14:39;100337.22;;;2.14;85.21
77110;BME280;66062;52.464;16.922;2023-03-04T03:17:05;100357.94;;;2.20;85.51
77110;BME280;66062;52.464;16.922;2023-03-04T03:19:30;100357.19;;;2.18;85.02
77110;BME280;66062;52.464;16.922;2023-03-04T03:21:55;100355.28;;;2.20;85.45
77110;BME280;66062;52.464;16.922;2023-03-04T03:24:21;100353.44;;;2.22;85.32
77110;BME280;66062;52.464;16.922;2023-03-04T03:26:46;100346.47;;;2.21;85.29
77110;BME280;66062;52.464;16.922;2023-03-04T03:29:11;100345.69;;;2.19;85.42
77110;BME280;66062;52.464;16.922;2023-03-04T03:31:37;100342.97;;;2.21;84.81
77110;BME280;66062;52.464;16.922;2023-03-04T03:34:02;100357.84;;;2.22;84.37
77110;BME280;66062;52.464;16.922;2023-03-04T03:36:28;100342.22;;;2.19;84.24
77110;BME280;66062;52.464;16.922;2023-03-04T03:38:53;100342.22;;;2.19;84.13
77110;BME280;66062;52.464;16.922;2023-03-04T03:41:18;100353.59;;;2.19;84.69
77110;BME280;66062;52.464;16.922;2023-03-04T03:43:44;100354.56;;;2.18;84.07
77110;BME280;66062;52.464;16.922;2023-03-04T03:46:09;100347.88;;;2.12;85.42
77110;BME280;66062;52.464;16.922;2023-03-04T03:48:35;100347.41;;;2.20;84.53
77110;BME280;66062;52.464;16.922;2023-03-04T03:51:00;100340.53;;;2.18;84.60
77110;BME280;66062;52.464;16.922;2023-03-04T03:53:26;100343.19;;;2.18;84.52
77110;BME280;66062;52.464;16.922;2023-03-04T03:55:51;100340.44;;;2.19;84.93
77110;BME280;66062;52.464;16.922;2023-03-04T03:58:16;100330.88;;;2.18;84.73
77110;BME280;66062;52.464;16.922;2023-03-04T04:00:42;100355.38;;;2.19;84.64
77110;BME280;66062;52.464;16.922;2023-03-04T04:03:10;100354.66;;;2.17;84.72
77110;BME280;66062;52.464;16.922;2023-03-04T04:05:38;100350.22;;;2.17;84.68
77110;BME280;66062;52.464;16.922;2023-03-04T04:08:04;100350.59;;;2.25;84.63
77110;BME280;66062;52.464;16.922;2023-03-04T04:10:29;100347.31;;;2.22;84.92
77110;BME280;66062;52.464;16.922;2023-03-04T04:12:54;100352.84;;;2.17;84.66
77110;BME280;66062;52.464;16.922;2023-03-04T04:15:20;100359.06;;;2.16;85.32
77110;BME280;66062;52.464;16.922;2023-03-04T04:17:45;100350.31;;;2.15;85.40
77110;BME280;66062;52.464;16.922;2023-03-04T04:20:11;100347.03;;;2.12;84.97
77110;BME280;66062;52.464;16.922;2023-03-04T04:22:36;100341.41;;;2.18;85.24
77110;BME280;66062;52.464;16.922;2023-03-04T04:25:02;100341.56;;;2.15;85.11
77110;BME280;66062;52.464;16.922;2023-03-04T04:27:29;100344.97;;;2.17;85.36
77110;BME280;66062;52.464;16.922;2023-03-04T04:29:54;100331.31;;;2.10;84.75
77110;BME280;66062;52.464;16.922;2023-03-04T04:32:19;100341.47;;;2.17;84.67
77110;BME280;66062;52.464;16.922;2023-03-04T04:34:45;100331.88;;;2.15;84.53
77110;BME280;66062;52.464;16.922;2023-03-04T04:37:10;100328.81;;;2.23;84.18
77110;BME280;66062;52.464;16.922;2023-03-04T04:39:36;100331.88;;;2.15;84.83
77110;BME280;66062;52.464;16.922;2023-03-04T04:42:02;100327.28;;;2.19;85.10
77110;BME280;66062;52.464;16.922;2023-03-04T04:44:27;100321.91;;;2.21;84.84
77110;BME280;66062;52.464;16.922;2023-03-04T04:46:52;100325.97;;;2.12;85.65
77110;BME280;66062;52.464;16.922;2023-03-04T04:49:18;100311.47;;;2.05;85.60
77110;BME280;66062;52.464;16.922;2023-03-04T04:51:43;100308.47;;;2.11;85.73
77110;BME280;66062;52.464;16.922;2023-03-04T04:54:09;100303.00;;;2.14;85.57
77110;BME280;66062;52.464;16.922;2023-03-04T04:56:36;100306.22;;;2.19;85.76
77110;BME280;66062;52.464;16.922;2023-03-04T04:59:03;100292.50;;;2.14;86.06
77110;BME280;66062;52.464;16.922;2023-03-04T05:01:30;100291.19;;;2.21;85.40
77110;BME280;66062;52.464;16.922;2023-03-04T05:03:55;100287.34;;;2.12;86.34
77110;BME280;66062;52.464;16.922;2023-03-04T05:06:22;100289.00;;;2.13;86.02
77110;BME280;66062;52.464;16.922;2023-03-04T05:08:48;100289.00;;;2.13;86.62
77110;BME280;66062;52.464;16.922;2023-03-04T05:11:14;100285.94;;;2.07;86.77
77110;BME280;66062;52.464;16.922;2023-03-04T05:13:40;100285.00;;;2.08;86.66
77110;BME280;66062;52.464;16.922;2023-03-04T05:16:06;100288.84;;;2.02;87.52
77110;BME280;66062;52.464;16.922;2023-03-04T05:18:31;100288.34;;;2.10;87.00
77110;BME280;66062;52.464;16.922;2023-03-04T05:20:59;100279.44;;;2.12;87.64
77110;BME280;66062;52.464;16.922;2023-03-04T05:23:26;100285.63;;;2.11;87.61
77110;BME280;66062;52.464;16.922;2023-03-04T05:25:52;100282.25;;;2.09;87.40
77110;BME280;66062;52.464;16.922;2023-03-04T05:28:18;100281.97;;;2.14;87.39
77110;BME280;66062;52.464;16.922;2023-03-04T05:30:43;100279.63;;;2.09;87.44
77110;BME280;66062;52.464;16.922;2023-03-04T05:33:10;100275.13;;;2.11;87.78
77110;BME280;66062;52.464;16.922;2023-03-04T05:35:37;100275.19;;;2.10;88.39
77110;BME280;66062;52.464;16.922;2023-03-04T05:38:04;100280.47;;;2.10;87.89
77110;BME280;66062;52.464;16.922;2023-03-04T05:40:30;100287.22;;;2.14;87.99
77110;BME280;66062;52.464;16.922;2023-03-04T05:42:55;100286.38;;;2.13;88.10
77110;BME280;66062;52.464;16.922;2023-03-04T05:45:21;100282.16;;;2.11;88.53
77110;BME280;66062;52.464;16.922;2023-03-04T05:47:46;100285.56;;;2.13;88.36
77110;BME280;66062;52.464;16.922;2023-03-04T05:50:12;100283.47;;;2.18;88.51
77110;BME280;66062;52.464;16.922;2023-03-04T05:52:37;100285.16;;;2.19;88.41
77110;BME280;66062;52.464;16.922;2023-03-04T05:55:02;100277.66;;;2.13;88.80
77110;BME280;66062;52.464;16.922;2023-03-04T05:57:28;100279.31;;;2.14;88.65
77110;BME280;66062;52.464;16.922;2023-03-04T05:59:53;100284.50;;;2.15;88.99
77110;BME280;66062;52.464;16.922;2023-03-04T06:02:19;100278.59;;;2.12;89.46
77110;BME280;66062;52.464;16.922;2023-03-04T06:04:44;100275.97;;;2.12;89.41
77110;BME280;66062;52.464;16.922;2023-03-04T06:07:10;100270.41;;;2.17;88.97
77110;BME280;66062;52.464;16.922;2023-03-04T06:09:35;100278.03;;;2.21;89.15
77110;BME280;66062;52.464;16.922;2023-03-04T06:12:00;100266.72;;;2.19;88.99
77110;BME280;66062;52.464;16.922;2023-03-04T06:14:26;100263.72;;;2.25;88.84
77110;BME280;66062;52.464;16.922;2023-03-04T06:16:51;100270.31;;;2.32;88.64
77110;BME280;66062;52.464;16.922;2023-03-04T06:19:17;100265.88;;;2.33;88.84
77110;BME280;66062;52.464;16.922;2023-03-04T06:21:42;100265.38;;;2.40;88.95
77110;BME280;66062;52.464;16.922;2023-03-04T06:24:08;100274.13;;;2.41;87.88
77110;BME280;66062;52.464;16.922;2023-03-04T06:26:33;100278.19;;;2.32;88.95
77110;BME280;66062;52.464;16.922;2023-03-04T06:28:58;100275.56;;;2.32;88.99
77110;BME280;66062;52.464;16.922;2023-03-04T06:31:24;100274.41;;;2.50;88.15
77110;BME280;66062;52.464;16.922;2023-03-04T06:33:49;100274.31;;;2.52;87.92
77110;BME280;66062;52.464;16.922;2023-03-04T06:36:16;100280.13;;;2.57;87.60
77110;BME280;66062;52.464;16.922;2023-03-04T06:38:41;100278.91;;;2.63;87.72
77110;BME280;66062;52.464;16.922;2023-03-04T06:41:09;100271.28;;;2.58;88.03
77110;BME280;66062;52.464;16.922;2023-03-04T06:43:35;100271.59;;;2.53;88.13
77110;BME280;66062;52.464;16.922;2023-03-04T06:46:01;100273.38;;;2.53;87.91
77110;BME280;66062;52.464;16.922;2023-03-04T06:48:27;100269.78;;;2.54;88.22
77110;BME280;66062;52.464;16.922;2023-03-04T06:50:52;100271.38;;;2.56;88.64
77110;BME280;66062;52.464;16.922;2023-03-04T06:53:18;100272.41;;;2.68;88.04
77110;BME280;66062;52.464;16.922;2023-03-04T06:55:43;100269.63;;;2.70;87.70
77110;BME280;66062;52.464;16.922;2023-03-04T06:58:09;100266.91;;;2.71;87.95
77110;BME280;66062;52.464;16.922;2023-03-04T07:00:34;100268.69;;;2.71;87.51
77110;BME280;66062;52.464;16.922;2023-03-04T07:03:00;100262.28;;;2.75;87.71
77110;BME280;66062;52.464;16.922;2023-03-04T07:05:26;100256.44;;;2.84;87.86
77110;BME280;66062;52.464;16.922;2023-03-04T07:07:52;100268.94;;;2.80;87.92
77110;BME280;66062;52.464;16.922;2023-03-04T07:10:18;100254.53;;;2.86;87.27
77110;BME280;66062;52.464;16.922;2023-03-04T07:12:44;100266.88;;;2.85;87.93
77110;BME280;66062;52.464;16.922;2023-03-04T07:15:10;100272.03;;;2.87;87.83
77110;BME280;66062;52.464;16.922;2023-03-04T07:17:35;100272.50;;;2.93;88.15
77110;BME280;66062;52.464;16.922;2023-03-04T07:20:01;100266.56;;;2.90;88.04
77110;BME280;66062;52.464;16.922;2023-03-04T07:22:26;100272.03;;;2.87;88.29
77110;BME280;66062;52.464;16.922;2023-03-04T07:24:52;100272.25;;;2.84;88.77
77110;BME280;66062;52.464;16.922;2023-03-04T07:27:17;100262.03;;;2.92;88.99
77110;BME280;66062;52.464;16.922;2023-03-04T07:29:43;100264.69;;;2.92;88.75
77110;BME280;66062;52.464;16.922;2023-03-04T07:32:09;100267.22;;;2.93;88.46
77110;BME280;66062;52.464;16.922;2023-03-04T07:34:34;100261.25;;;3.04;90.20
77110;BME280;66062;52.464;16.922;2023-03-04T07:37:00;100260.66;;;3.13;88.91
77110;BME280;66062;52.464;16.922;2023-03-04T07:39:25;100256.75;;;3.19;88.02
77110;BME280;66062;52.464;16.922;2023-03-04T07:41:51;100261.25;;;3.04;88.05
77110;BME280;66062;52.464;16.922;2023-03-04T07:44:16;100266.22;;;3.09;88.05
77110;BME280;66062;52.464;16.922;2023-03-04T07:46:42;100259.34;;;3.06;88.57
77110;BME280;66062;52.464;16.922;2023-03-04T07:49:07;100259.88;;;3.11;88.28
77110;BME280;66062;52.464;16.922;2023-03-04T07:51:33;100255.56;;;3.10;88.59
77110;BME280;66062;52.464;16.922;2023-03-04T07:54:00;100262.03;;;3.19;88.21
77110;BME280;66062;52.464;16.922;2023-03-04T07:56:28;100251.97;;;3.11;88.73
77110;BME280;66062;52.464;16.922;2023-03-04T07:58:54;100260.56;;;3.15;88.57
77110;BME280;66062;52.464;16.922;2023-03-04T08:01:34;100257.94;;;3.27;88.10
77110;BME280;66062;52.464;16.922;2023-03-04T08:04:02;100256.78;;;3.31;87.63
77110;BME280;66062;52.464;16.922;2023-03-04T08:06:28;100246.66;;;3.38;87.42
77110;BME280;66062;52.464;16.922;2023-03-04T08:08:59;100247.69;;;3.35;87.90
77110;BME280;66062;52.464;16.922;2023-03-04T08:11:26;100246.78;;;3.49;87.75
77110;BME280;66062;52.464;16.922;2023-03-04T08:13:52;100255.44;;;3.38;87.62
77110;BME280;66062;52.464;16.922;2023-03-04T08:16:19;100246.88;;;3.35;87.79
77110;BME280;66062;52.464;16.922;2023-03-04T08:18:47;100244.78;;;3.40;88.13
77110;BME280;66062;52.464;16.922;2023-03-04T08:21:14;100247.50;;;3.51;87.84
77110;BME280;66062;52.464;16.922;2023-03-04T08:23:40;100248.25;;;3.53;87.88
77110;BME280;66062;52.464;16.922;2023-03-04T08:26:09;100245.72;;;3.52;88.09
77110;BME280;66062;52.464;16.922;2023-03-04T08:28:36;100243.84;;;3.54;88.29
77110;BME280;66062;52.464;16.922;2023-03-04T08:31:02;100244.25;;;3.48;88.50
77110;BME280;66062;52.464;16.922;2023-03-04T08:33:28;100239.72;;;3.62;88.72
77110;BME280;66062;52.464;16.922;2023-03-04T08:35:54;100234.75;;;3.58;89.09
77110;BME280;66062;52.464;16.922;2023-03-04T08:38:19;100244.28;;;3.60;89.49
77110;BME280;66062;52.464;16.922;2023-03-04T08:40:45;100243.72;;;3.68;89.12
77110;BME280;66062;52.464;16.922;2023-03-04T08:43:10;100240.88;;;3.58;89.97
77110;BME280;66062;52.464;16.922;2023-03-04T08:45:36;100244.56;;;3.56;90.67
77110;BME280;66062;52.464;16.922;2023-03-04T08:48:01;100239.72;;;3.62;90.40
77110;BME280;66062;52.464;16.922;2023-03-04T08:50:27;100233.38;;;3.52;91.29
77110;BME280;66062;52.464;16.922;2023-03-04T08:52:53;100231.81;;;3.62;91.14
77110;BME280;66062;52.464;16.922;2023-03-04T08:55:18;100234.00;;;3.81;91.57
77110;BME280;66062;52.464;16.922;2023-03-04T08:57:44;100236.03;;;3.90;91.09
77110;BME280;66062;52.464;16.922;2023-03-04T09:00:10;100231.28;;;3.82;91.14
77110;BME280;66062;52.464;16.922;2023-03-04T09:02:37;100229.91;;;3.90;90.35
77110;BME280;66062;52.464;16.922;2023-03-04T09:05:03;100235.69;;;3.82;91.61
77110;BME280;66062;52.464;16.922;2023-03-04T09:07:30;100228.13;;;3.90;91.44
77110;BME280;66062;52.464;16.922;2023-03-04T09:09:55;100236.75;;;3.92;92.00
77110;BME280;66062;52.464;16.922;2023-03-04T09:12:21;100242.78;;;3.94;92.94
77110;BME280;66062;52.464;16.922;2023-03-04T09:14:46;100237.78;;;4.02;93.09
77110;BME280;66062;52.464;16.922;2023-03-04T09:17:12;100231.78;;;4.00;93.71
77110;BME280;66062;52.464;16.922;2023-03-04T09:19:37;100242.97;;;4.04;93.41
77110;BME280;66062;52.464;16.922;2023-03-04T09:22:03;100235.56;;;4.09;94.13
77110;BME280;66062;52.464;16.922;2023-03-04T09:24:28;100231.75;;;4.25;93.12
77110;BME280;66062;52.464;16.922;2023-03-04T09:26:54;100231.63;;;4.27;91.82
77110;BME280;66062;52.464;16.922;2023-03-04T09:29:20;100223.16;;;4.35;92.84
77110;BME280;66062;52.464;16.922;2023-03-04T09:31:45;100232.00;;;4.46;91.87
77110;BME280;66062;52.464;16.922;2023-03-04T09:34:11;100216.53;;;4.53;91.68
77110;BME280;66062;52.464;16.922;2023-03-04T09:36:36;100221.22;;;4.49;91.67
77110;BME280;66062;52.464;16.922;2023-03-04T09:39:03;100226.03;;;4.32;91.82
77110;BME280;66062;52.464;16.922;2023-03-04T09:41:38;100226.31;;;4.40;92.51
77110;BME280;66062;52.464;16.922;2023-03-04T09:44:13;100227.25;;;4.75;90.17
77110;BME280;66062;52.464;16.922;2023-03-04T09:46:40;100219.69;;;5.05;87.68
77110;BME280;66062;52.464;16.922;2023-03-04T09:49:10;100218.28;;;4.89;88.17
77110;BME280;66062;52.464;16.922;2023-03-04T09:51:56;100212.00;;;5.02;89.46
77110;BME280;66062;52.464;16.922;2023-03-04T09:57:24;100215.94;;;4.73;89.67
77110;BME280;66062;52.464;16.922;2023-03-04T10:05:12;100215.47;;;5.03;89.93
77110;BME280;66062;52.464;16.922;2023-03-04T10:07:42;100211.59;;;4.96;89.48
77110;BME280;66062;52.464;16.922;2023-03-04T10:10:12;100203.97;;;5.15;88.37
77110;BME280;66062;52.464;16.922;2023-03-04T10:12:45;100208.41;;;5.14;88.02
77110;BME280;66062;52.464;16.922;2023-03-04T10:18:13;100196.84;;;5.04;89.29
77110;BME280;66062;52.464;16.922;2023-03-04T10:21:03;100192.63;;;5.02;87.96
77110;BME280;66062;52.464;16.922;2023-03-04T10:23:36;100194.94;;;5.06;87.21
77110;BME280;66062;52.464;16.922;2023-03-04T10:26:18;100196.59;;;4.96;88.10
77110;BME280;66062;52.464;16.922;2023-03-04T10:28:46;100185.50;;;5.26;87.62
77110;BME280;66062;52.464;16.922;2023-03-04T10:31:33;100192.22;;;5.30;86.51
77110;BME280;66062;52.464;16.922;2023-03-04T10:34:01;100186.47;;;5.36;84.72
77110;BME280;66062;52.464;16.922;2023-03-04T10:39:10;100181.19;;;5.36;85.11
77110;BME280;66062;52.464;16.922;2023-03-04T10:41:40;100183.28;;;5.66;83.26
77110;BME280;66062;52.464;16.922;2023-03-04T10:46:39;100177.00;;;5.56;85.30
77110;BME280;66062;52.464;16.922;2023-03-04T10:49:05;100173.16;;;5.60;84.84
77110;BME280;66062;52.464;16.922;2023-03-04T10:51:31;100165.19;;;5.49;84.48
77110;BME280;66062;52.464;16.922;2023-03-04T10:54:09;100171.16;;;5.18;86.28
77110;BME280;66062;52.464;16.922;2023-03-04T10:56:42;100173.94;;;5.16;87.14
77110;BME280;66062;52.464;16.922;2023-03-04T11:02:47;100165.69;;;5.43;85.50
77110;BME280;66062;52.464;16.922;2023-03-04T11:05:20;100163.50;;;5.59;83.29
77110;BME280;66062;52.464;16.922;2023-03-04T11:07:50;100153.88;;;6.25;81.71
77110;BME280;66062;52.464;16.922;2023-03-04T11:10:21;100151.84;;;7.54;75.86
77110;BME280;66062;52.464;16.922;2023-03-04T11:15:19;100153.13;;;6.77;76.75
77110;BME280;66062;52.464;16.922;2023-03-04T11:17:49;100156.91;;;6.63;75.91
77110;BME280;66062;52.464;16.922;2023-03-04T11:20:20;100154.72;;;7.21;74.20
77110;BME280;66062;52.464;16.922;2023-03-04T11:22:49;100150.47;;;6.77;76.34
77110;BME280;66062;52.464;16.922;2023-03-04T11:25:25;100166.78;;;6.29;76.94
77110;BME280;66062;52.464;16.922;2023-03-04T11:27:57;100168.81;;;6.15;78.28
77110;BME280;66062;52.464;16.922;2023-03-04T11:30:43;100161.63;;;5.94;78.62
77110;BME280;66062;52.464;16.922;2023-03-04T11:35:53;100154.88;;;6.24;77.99
77110;BME280;66062;52.464;16.922;2023-03-04T11:38:32;100143.44;;;7.08;73.51
77110;BME280;66062;52.464;16.922;2023-03-04T11:41:05;100154.31;;;6.84;73.16
77110;BME280;66062;52.464;16.922;2023-03-04T11:43:37;100147.00;;;6.33;74.09
77110;BME280;66062;52.464;16.922;2023-03-04T11:46:21;100152.13;;;6.57;75.27
77110;BME280;66062;52.464;16.922;2023-03-04T11:52:17;100142.47;;;6.56;74.05
77110;BME280;66062;52.464;16.922;2023-03-04T12:03:22;100142.44;;;7.20;71.91
77110;BME280;66062;52.464;16.922;2023-03-04T12:21:37;100134.25;;;7.93;65.79
77110;BME280;66062;52.464;16.922;2023-03-04T12:24:33;100131.97;;;7.49;66.87
77110;BME280;66062;52.464;16.922;2023-03-04T12:27:13;100137.44;;;7.06;68.82
77110;BME280;66062;52.464;16.922;2023-03-04T12:32:35;100144.50;;;6.64;70.19
77110;BME280;66062;52.464;16.922;2023-03-04T12:35:49;100144.09;;;6.36;70.86
77110;BME280;66062;52.464;16.922;2023-03-04T12:38:53;100147.16;;;6.10;71.15
77110;BME280;66062;52.464;16.922;2023-03-04T12:44:15;100147.28;;;5.86;71.91
77110;BME280;66062;52.464;16.922;2023-03-04T12:47:13;100142.97;;;5.74;72.55
77110;BME280;66062;52.464;16.922;2023-03-04T12:52:38;100170.78;;;5.68;72.66
77110;BME280;66062;52.464;16.922;2023-03-04T12:55:13;100178.91;;;5.54;75.88
77110;BME280;66062;52.464;16.922;2023-03-04T12:57:40;100204.31;;;4.52;82.32
77110;BME280;66062;52.464;16.922;2023-03-04T13:00:22;100201.75;;;4.14;87.11
77110;BME280;66062;52.464;16.922;2023-03-04T13:05:50;100189.31;;;4.03;89.97
77110;BME280;66062;52.464;16.922;2023-03-04T13:16:53;100199.16;;;4.38;86.13
77110;BME280;66062;52.464;16.922;2023-03-04T13:19:51;100205.69;;;4.45;85.30
77110;BME280;66062;52.464;16.922;2023-03-04T13:22:34;100206.88;;;4.41;84.43
77110;BME280;66062;52.464;16.922;2023-03-04T13:25:35;100202.78;;;4.37;84.10
77110;BME280;66062;52.464;16.922;2023-03-04T13:38:22;100214.63;;;4.18;82.90
77110;BME280;66062;52.464;16.922;2023-03-04T13:43:45;100214.13;;;4.13;83.33
77110;BME280;66062;52.464;16.922;2023-03-04T13:56:37;100227.19;;;4.27;83.96
77110;BME280;66062;52.464;16.922;2023-03-04T14:04:35;100239.72;;;4.00;85.14
77110;BME280;66062;52.464;16.922;2023-03-04T14:07:25;100222.38;;;4.21;84.96
77110;BME280;66062;52.464;16.922;2023-03-04T14:12:36;100228.03;;;4.28;84.27
77110;BME280;66062;52.464;16.922;2023-03-04T14:15:11;100231.84;;;4.24;83.01
77110;BME280;66062;52.464;16.922;2023-03-04T14:17:48;100223.63;;;4.16;82.13
77110;BME280;66062;52.464;16.922;2023-03-04T14:20:35;100218.56;;;4.13;81.13
77110;BME280;66062;52.464;16.922;2023-03-04T14:23:24;100226.66;;;4.22;79.26
77110;BME280;66062;52.464;16.922;2023-03-04T14:25:50;100228.88;;;4.28;76.50
77110;BME280;66062;52.464;16.922;2023-03-04T14:28:18;100229.81;;;4.27;75.29
77110;BME280;66062;52.464;16.922;2023-03-04T14:30:51;100224.22;;;4.32;75.07
77110;BME280;66062;52.464;16.922;2023-03-04T14:33:21;100227.22;;;4.15;75.64
77110;BME280;66062;52.464;16.922;2023-03-04T14:36:12;100226.78;;;4.21;74.66
77110;BME280;66062;52.464;16.922;2023-03-04T14:38:37;100227.06;;;4.42;73.82
77110;BME280;66062;52.464;16.922;2023-03-04T14:41:08;100224.63;;;4.39;73.10
77110;BME280;66062;52.464;16.922;2023-03-04T14:44:11;100233.13;;;4.55;73.35
77110;BME280;66062;52.464;16.922;2023-03-04T14:46:44;100240.41;;;4.64;73.54